Time,TemperatureF,DewpointF,PressureIn,WindDirection,WindDirectionDegrees,WindSpeedMPH,WindSpeedGustMPH,Humidity,HourlyPrecipIn,Conditions,Clouds,dailyrainin,SoftwareType,DateUTC
2015-05-25 00:03:00,60.4,59.3,29.72,ESE,107,6.0,7.0,96,0.00,,---,0.00,VWS V14.00,2015-05-25 05:03:00,
2015-05-25 00:08:00,61.0,60.2,29.72,ESE,111,0.0,0.0,97,0.00,,---,0.00,VWS V14.00,2015-05-25 05:08:00,
2015-05-25 00:13:00,61.1,60.2,29.72,ESE,113,0.0,6.0,97,0.00,,---,0.00,VWS V14.00,2015-05-25 05:13:00,
2015-05-25 00:18:00,61.1,60.0,29.71,ESE,113,0.0,0.0,96,0.00,,---,0.00,VWS V14.00,2015-05-25 05:18:00,
2015-05-25 00:23:00,60.9,59.8,29.71,ESE,113,0.0,1.0,96,0.00,,---,0.00,VWS V14.00,2015-05-25 05:23:00,
2015-05-25 00:28:00,60.7,59.6,29.71,ESE,113,0.0,1.0,96,0.00,,---,0.00,VWS V14.00,2015-05-25 05:28:00,
2015-05-25 00:34:00,60.9,59.8,29.70,SE,126,0.0,4.0,96,0.00,,---,0.00,VWS V14.00,2015-05-25 05:34:00,
2015-05-25 00:39:00,61.6,60.7,29.70,SE,130,5.0,11.0,97,0.00,,---,0.00,VWS V14.00,2015-05-25 05:39:00,
2015-05-25 00:44:00,62.5,61.6,29.70,SE,145,0.0,5.0,97,0.00,,---,0.00,VWS V14.00,2015-05-25 05:44:00,
2015-05-25 00:49:00,63.0,62.1,29.69,SSE,148,0.0,5.0,97,0.00,,---,0.00,VWS V14.00,2015-05-25 05:49:00,
2015-05-25 00:54:00,63.2,62.3,29.69,SE,133,1.0,4.0,97,0.00,,---,0.00,VWS V14.00,2015-05-25 05:54:00,
2015-05-25 00:59:00,63.2,62.3,29.69,SE,133,0.0,0.0,97,0.01,,---,0.01,VWS V14.00,2015-05-25 05:59:00,
2015-05-25 01:04:00,63.2,62.3,29.69,SE,134,2.0,2.0,97,0.01,,---,0.01,VWS V14.00,2015-05-25 06:04:00,
2015-05-25 01:09:00,63.4,62.5,29.69,SE,134,0.0,0.0,97,0.01,,---,0.01,VWS V14.00,2015-05-25 06:09:00,
2015-05-25 01:14:00,63.4,62.5,29.69,SE,133,0.0,1.0,97,0.01,,---,0.01,VWS V14.00,2015-05-25 06:14:00,
2015-05-25 01:19:00,63.5,62.3,29.68,SE,142,4.0,6.0,96,0.01,,---,0.01,VWS V14.00,2015-05-25 06:19:00,
2015-05-25 01:24:00,63.7,62.5,29.68,SE,136,0.0,5.0,96,0.01,,---,0.01,VWS V14.00,2015-05-25 06:24:00,
2015-05-25 01:29:00,63.9,63.0,29.68,SE,144,2.0,6.0,97,0.01,,---,0.01,VWS V14.00,2015-05-25 06:29:00,
2015-05-25 01:34:00,64.1,62.9,29.68,SE,146,2.0,4.0,96,0.01,,---,0.01,VWS V14.00,2015-05-25 06:34:00,
2015-05-25 01:39:00,64.2,63.0,29.67,SSE,150,0.0,6.0,96,0.01,,---,0.01,VWS V14.00,2015-05-25 06:39:00,
2015-05-25 01:44:00,64.3,63.1,29.67,SSE,156,5.0,8.0,96,0.01,,---,0.01,VWS V14.00,2015-05-25 06:44:00,
2015-05-25 01:49:00,64.4,63.5,29.67,SSE,147,0.0,4.0,97,0.01,,---,0.01,VWS V14.00,2015-05-25 06:49:00,
2015-05-25 01:54:00,64.4,63.2,29.67,SSE,147,0.0,1.0,96,0.01,,---,0.01,VWS V14.00,2015-05-25 06:54:00,
2015-05-25 01:59:00,64.6,63.7,29.66,SSE,158,4.0,6.0,97,0.00,,---,0.01,VWS V14.00,2015-05-25 06:59:00,
2015-05-25 02:04:00,64.7,63.5,29.66,SE,142,3.0,7.0,96,0.00,,---,0.01,VWS V14.00,2015-05-25 07:04:00,
2015-05-25 02:09:00,64.8,63.6,29.66,SSE,148,1.0,6.0,96,0.00,,---,0.01,VWS V14.00,2015-05-25 07:09:00,
2015-05-25 02:14:00,64.9,63.7,29.66,SE,136,0.0,4.0,96,0.00,,---,0.01,VWS V14.00,2015-05-25 07:14:00,
2015-05-25 02:19:00,65.0,63.8,29.66,SE,146,1.0,4.0,96,0.00,,---,0.01,VWS V14.00,2015-05-25 07:19:00,
2015-05-25 02:24:00,65.0,63.8,29.65,SSE,150,0.0,4.0,96,0.00,,---,0.01,VWS V14.00,2015-05-25 07:24:00,
2015-05-25 02:29:00,65.1,63.9,29.65,SE,140,7.0,8.0,96,0.00,,---,0.01,VWS V14.00,2015-05-25 07:29:00,
2015-05-25 02:34:00,65.2,64.0,29.65,SSE,157,3.0,9.0,96,0.00,,---,0.01,VWS V14.00,2015-05-25 07:34:00,
2015-05-25 02:39:00,65.3,64.1,29.65,SE,140,4.0,5.0,96,0.00,,---,0.01,VWS V14.00,2015-05-25 07:39:00,
2015-05-25 02:45:00,65.4,64.2,29.65,SSE,161,4.0,5.0,96,0.00,,---,0.01,VWS V14.00,2015-05-25 07:45:00,
2015-05-25 02:50:00,65.4,64.2,29.65,SE,146,0.0,5.0,96,0.00,,---,0.01,VWS V14.00,2015-05-25 07:50:00,
2015-05-25 02:55:00,65.4,64.2,29.65,SSE,153,1.0,7.0,96,0.00,,---,0.01,VWS V14.00,2015-05-25 07:55:00,
2015-05-25 03:00:00,65.5,64.3,29.65,SSE,157,0.0,6.0,96,0.00,,---,0.01,VWS V14.00,2015-05-25 08:00:00,
2015-05-25 03:05:00,65.4,64.2,29.64,SSE,159,0.0,1.0,96,0.00,,---,0.01,VWS V14.00,2015-05-25 08:05:00,
2015-05-25 03:10:00,65.4,64.2,29.64,SSE,152,0.0,3.0,96,0.00,,---,0.01,VWS V14.00,2015-05-25 08:10:00,
2015-05-25 03:15:00,65.4,64.2,29.64,SSE,154,2.0,3.0,96,0.00,,---,0.01,VWS V14.00,2015-05-25 08:15:00,
2015-05-25 03:20:00,65.4,64.2,29.64,SSE,152,0.0,4.0,96,0.01,,---,0.02,VWS V14.00,2015-05-25 08:20:00,
2015-05-25 03:25:00,65.4,64.2,29.65,SSE,148,0.0,3.0,96,0.01,,---,0.02,VWS V14.00,2015-05-25 08:25:00,
2015-05-25 03:30:00,65.4,64.2,29.65,SSE,147,0.0,3.0,96,0.01,,---,0.02,VWS V14.00,2015-05-25 08:30:00,
2015-05-25 03:40:00,65.6,64.4,29.65,SE,138,2.0,7.0,96,0.03,,---,0.04,VWS V14.00,2015-05-25 08:40:00,
2015-05-25 03:45:00,65.5,64.3,29.64,SSE,149,2.0,5.0,96,0.03,,---,0.04,VWS V14.00,2015-05-25 08:45:00,
2015-05-25 03:50:00,65.5,64.3,29.64,SSE,150,0.0,6.0,96,0.03,,---,0.04,VWS V14.00,2015-05-25 08:50:00,
2015-05-25 03:55:00,65.5,64.3,29.64,SSE,150,0.0,4.0,96,0.04,,---,0.05,VWS V14.00,2015-05-25 08:55:00,
2015-05-25 04:00:00,65.5,64.3,29.63,SE,140,0.0,5.0,96,0.04,,---,0.05,VWS V14.00,2015-05-25 09:00:00,
2015-05-25 04:05:00,65.4,64.2,29.63,SE,140,0.0,0.0,96,0.04,,---,0.05,VWS V14.00,2015-05-25 09:05:00,
2015-05-25 04:10:00,65.4,64.2,29.63,SE,140,0.0,1.0,96,0.04,,---,0.05,VWS V14.00,2015-05-25 09:10:00,
2015-05-25 04:15:00,65.3,64.1,29.63,SE,140,0.0,0.0,96,0.04,,---,0.05,VWS V14.00,2015-05-25 09:15:00,
2015-05-25 04:20:00,65.2,64.0,29.62,SE,140,0.0,0.0,96,0.04,,---,0.05,VWS V14.00,2015-05-25 09:20:00,
2015-05-25 04:25:00,65.2,64.0,29.62,SE,140,0.0,1.0,96,0.03,,---,0.05,VWS V14.00,2015-05-25 09:25:00,
2015-05-25 04:30:00,65.1,63.9,29.62,SE,140,0.0,1.0,96,0.03,,---,0.05,VWS V14.00,2015-05-25 09:30:00,
2015-05-25 04:35:00,65.2,64.0,29.62,SE,140,2.0,2.0,96,0.02,,---,0.05,VWS V14.00,2015-05-25 09:35:00,
2015-05-25 04:40:00,65.2,64.0,29.61,SE,137,0.0,4.0,96,0.02,,---,0.05,VWS V14.00,2015-05-25 09:40:00,
2015-05-25 04:45:00,65.3,64.1,29.61,SE,137,1.0,4.0,96,0.01,,---,0.05,VWS V14.00,2015-05-25 09:45:00,
2015-05-25 04:50:00,65.3,64.1,29.61,SE,139,0.0,4.0,96,0.01,,---,0.05,VWS V14.00,2015-05-25 09:50:00,
2015-05-25 04:55:00,65.4,64.2,29.61,SE,145,0.0,7.0,96,0.02,,---,0.07,VWS V14.00,2015-05-25 09:55:00,
2015-05-25 05:01:00,65.4,64.2,29.61,SE,141,0.0,6.0,96,0.04,,---,0.09,VWS V14.00,2015-05-25 10:01:00,
2015-05-25 05:06:00,65.5,64.3,29.61,SE,141,0.0,3.0,96,0.04,,---,0.09,VWS V14.00,2015-05-25 10:06:00,
2015-05-25 05:11:00,65.5,64.3,29.60,SE,141,0.0,6.0,96,0.05,,---,0.10,VWS V14.00,2015-05-25 10:11:00,
2015-05-25 05:16:00,65.6,64.4,29.60,SE,144,0.0,5.0,96,0.05,,---,0.10,VWS V14.00,2015-05-25 10:16:00,
2015-05-25 05:21:00,65.7,64.5,29.60,SE,144,0.0,3.0,96,0.05,,---,0.10,VWS V14.00,2015-05-25 10:21:00,